createdAt,value
2019-02-26T00:00:02.765Z,9.06
2019-02-26T00:02:32.617Z,8.79
2019-02-26T00:05:06.387Z,8.91
2019-02-26T00:07:35.540Z,9.18
2019-02-26T00:10:08.991Z,8.85
2019-02-26T00:12:38.128Z,8.75
2019-02-26T00:15:08.411Z,8.66
2019-02-26T00:17:43.081Z,8.48
2019-02-26T00:20:17.610Z,8.21
2019-02-26T00:22:50.221Z,8.05
2019-02-26T00:25:20.576Z,8.02
2019-02-26T00:27:52.444Z,8.02
2019-02-26T00:30:24.610Z,8.11
2019-02-26T00:32:56.128Z,8.04
2019-02-26T00:35:25.255Z,8.09
2019-02-26T00:37:55.873Z,7.89
2019-02-26T00:40:26.199Z,7.94
2019-02-26T00:42:57.538Z,7.56
2019-02-26T00:45:29.491Z,7.38
2019-02-26T00:47:58.193Z,7.79
2019-02-26T00:50:28.069Z,7.39
2019-02-26T00:52:59.421Z,7.77
2019-02-26T00:55:34.900Z,7.81
2019-02-26T00:58:05.906Z,7.62
2019-02-26T01:00:35.487Z,7.54
2019-02-26T01:03:06.028Z,7.55
2019-02-26T01:05:36.367Z,7.65
2019-02-26T01:08:12.747Z,7.61
2019-02-26T01:10:41.588Z,7.50
2019-02-26T01:13:17.284Z,7.38
2019-02-26T01:15:46.672Z,7.12
2019-02-26T01:18:15.786Z,7.54
2019-02-26T01:20:48.351Z,7.31
2019-02-26T01:23:21.459Z,7.25
2019-02-26T01:25:54.685Z,7.57
2019-02-26T01:28:24.800Z,7.20
2019-02-26T01:31:02.620Z,7.01
2019-02-26T01:33:32.122Z,6.90
2019-02-26T01:36:06.394Z,6.98
2019-02-26T01:38:39.406Z,6.87
2019-02-26T01:41:11.256Z,7.15
2019-02-26T01:43:41.574Z,7.01
2019-02-26T01:46:11.706Z,6.96
2019-02-26T01:48:41.528Z,6.93
2019-02-26T01:51:10.673Z,6.62
2019-02-26T01:53:39.820Z,6.86
2019-02-26T01:56:19.947Z,7.26
2019-02-26T01:58:56.841Z,7.06
2019-02-26T02:01:32.214Z,7.05
2019-02-26T02:04:03.950Z,6.86
2019-02-26T02:06:36.906Z,6.98
2019-02-26T02:09:15.835Z,7.03
2019-02-26T02:11:47.917Z,7.16
2019-02-26T02:14:20.076Z,7.06
2019-02-26T02:16:49.191Z,6.69
2019-02-26T02:19:22.235Z,6.57
2019-02-26T02:21:53.938Z,6.53
2019-02-26T02:24:24.567Z,6.59
2019-02-26T02:26:58.436Z,6.74
2019-02-26T02:29:28.879Z,6.79
2019-02-26T02:32:02.257Z,6.85
2019-02-26T02:34:32.661Z,6.69
2019-02-26T02:37:00.615Z,7.12
2019-02-26T02:39:29.737Z,7.06
2019-02-26T02:41:58.811Z,7.54
2019-02-26T02:44:29.328Z,7.23
2019-02-26T02:47:01.986Z,7.47
2019-02-26T02:49:38.897Z,7.71
2019-02-26T02:52:11.891Z,7.26
2019-02-26T02:54:44.130Z,7.01
2019-02-26T02:57:18.017Z,7.13
2019-02-26T02:59:47.138Z,7.30
2019-02-26T03:02:17.677Z,7.25
2019-02-26T03:04:52.315Z,7.27
2019-02-26T03:07:23.428Z,7.08
2019-02-26T03:10:06.142Z,6.94
2019-02-26T03:12:33.952Z,6.75
2019-02-26T03:15:07.987Z,7.04
2019-02-26T03:17:42.619Z,7.17
2019-02-26T03:20:13.630Z,7.27
2019-02-26T03:22:46.148Z,7.76
2019-02-26T03:25:24.347Z,7.50
2019-02-26T03:27:52.847Z,7.71
2019-02-26T03:30:31.956Z,8.28
2019-02-26T03:33:04.363Z,7.65
2019-02-26T03:35:36.408Z,7.62
2019-02-26T03:38:06.310Z,7.42
2019-02-26T03:40:36.153Z,7.50
2019-02-26T03:43:07.696Z,7.12
2019-02-26T03:45:39.550Z,7.37
2019-02-26T03:48:11.725Z,7.23
2019-02-26T03:50:44.062Z,7.17
2019-02-26T03:53:15.139Z,7.08
2019-02-26T03:55:44.599Z,6.64
2019-02-26T03:58:14.778Z,6.62
2019-02-26T04:00:46.768Z,6.74
2019-02-26T04:03:17.632Z,6.74
2019-02-26T04:05:47.154Z,6.61
2019-02-26T04:08:23.897Z,6.65
2019-02-26T04:10:53.624Z,6.36
2019-02-26T04:13:22.360Z,6.37
2019-02-26T04:15:55.978Z,6.34
2019-02-26T04:18:34.195Z,6.42
2019-02-26T04:21:05.924Z,6.25
2019-02-26T04:23:36.083Z,6.07
2019-02-26T04:27:08.320Z,5.95
2019-02-26T04:29:57.887Z,5.99
2019-02-26T04:33:17.369Z,5.92
2019-02-26T04:36:11.901Z,5.72
2019-02-26T04:39:13.631Z,5.72
2019-02-26T04:42:20.532Z,5.58
2019-02-26T04:45:45.531Z,5.70
2019-02-26T04:48:29.806Z,5.91
2019-02-26T04:51:10.303Z,6.17
2019-02-26T04:53:39.460Z,6.31
2019-02-26T04:56:12.872Z,6.84
2019-02-26T04:58:45.393Z,6.46
2019-02-26T05:01:18.882Z,6.46
2019-02-26T05:03:49.651Z,6.84
2019-02-26T05:06:20.577Z,6.83
2019-02-26T05:08:51.267Z,6.45
2019-02-26T05:11:31.394Z,6.81
2019-02-26T05:13:59.530Z,6.67
2019-02-26T05:16:31.889Z,6.35
2019-02-26T05:19:00.080Z,6.34
2019-02-26T05:21:32.614Z,6.18
2019-02-26T05:24:03.019Z,6.20
2019-02-26T05:26:33.363Z,5.91
2019-02-26T05:29:04.274Z,6.09
2019-02-26T05:31:35.837Z,6.18
2019-02-26T05:34:06.746Z,5.74
2019-02-26T05:36:40.295Z,6.07
2019-02-26T05:39:10.136Z,5.92
2019-02-26T05:41:40.447Z,6.23
2019-02-26T05:44:13.151Z,6.56
2019-02-26T05:46:42.262Z,7.07
2019-02-26T05:49:14.108Z,7.05
2019-02-26T05:51:49.208Z,7.36
2019-02-26T05:54:21.600Z,7.03
2019-02-26T05:56:51.840Z,6.79
2019-02-26T05:59:25.196Z,6.60
2019-02-26T06:01:58.373Z,6.60
2019-02-26T06:04:31.998Z,6.23
2019-02-26T06:07:02.656Z,5.97
2019-02-26T06:09:37.901Z,6.06
2019-02-26T06:12:07.979Z,5.69
2019-02-26T06:14:39.420Z,5.83
2019-02-26T06:17:13.175Z,5.89
2019-02-26T06:19:47.042Z,6.10
2019-02-26T06:22:21.319Z,6.25
2019-02-26T06:24:49.768Z,6.86
2019-02-26T06:27:21.993Z,7.21
2019-02-26T06:29:52.886Z,7.87
2019-02-26T06:32:21.471Z,8.30
2019-02-26T06:34:50.580Z,8.21
2019-02-26T06:37:23.378Z,8.90
2019-02-26T06:40:00.457Z,8.72
2019-02-26T06:42:31.564Z,8.76
2019-02-26T06:45:05.881Z,7.77
2019-02-26T06:47:36.925Z,7.26
2019-02-26T06:50:15.848Z,7.17
2019-02-26T06:52:45.383Z,7.14
2019-02-26T06:55:16.985Z,7.18
2019-02-26T06:57:47.075Z,7.08
2019-02-26T07:00:25.160Z,7.07
2019-02-26T07:02:55.658Z,6.83
2019-02-26T07:05:24.765Z,6.73
2019-02-26T07:07:55.113Z,6.96
2019-02-26T07:10:28.180Z,7.02
2019-02-26T07:12:58.048Z,7.31
2019-02-26T07:15:29.476Z,7.82
2019-02-26T07:18:04.074Z,8.05
2019-02-26T07:20:46.479Z,7.96
2019-02-26T07:23:03.417Z,7.89
2019-02-26T07:25:38.808Z,7.82
2019-02-26T07:28:07.815Z,7.47
2019-02-26T07:30:37.564Z,7.89
2019-02-26T07:33:16.193Z,8.16
2019-02-26T07:35:45.378Z,8.27
2019-02-26T07:38:20.179Z,8.44
2019-02-26T07:40:54.345Z,8.25
2019-02-26T07:43:23.438Z,8.50
2019-02-26T07:45:57.655Z,8.35
2019-02-26T07:48:31.249Z,8.64
2019-02-26T07:51:01.876Z,8.94
2019-02-26T07:53:31.922Z,8.94
2019-02-26T07:56:03.642Z,9.03
2019-02-26T07:58:38.942Z,9.12
2019-02-26T08:01:13.663Z,9.43
2019-02-26T08:03:44.041Z,9.56
2019-02-26T08:06:21.883Z,9.93
2019-02-26T08:08:52.761Z,10.05
2019-02-26T08:11:22.357Z,10.37
2019-02-26T08:13:52.390Z,10.42
2019-02-26T08:16:27.716Z,10.49
2019-02-26T08:18:59.012Z,10.11
2019-02-26T08:21:32.195Z,10.22
2019-02-26T08:24:01.665Z,10.80
2019-02-26T08:26:33.538Z,11.05
2019-02-26T08:29:05.665Z,11.23
2019-02-26T08:31:34.671Z,11.45
2019-02-26T08:34:06.684Z,11.29
2019-02-26T08:36:37.950Z,11.84
2019-02-26T08:39:08.598Z,11.34
2019-02-26T08:41:38.008Z,11.63
2019-02-26T08:44:10.663Z,11.94
2019-02-26T08:46:42.082Z,11.72
2019-02-26T08:49:11.614Z,12.18
2019-02-26T08:51:41.959Z,11.69
2019-02-26T08:54:20.354Z,11.68
2019-02-26T08:56:42.016Z,11.85
2019-02-26T08:59:17.660Z,12.17
2019-02-26T09:01:52.158Z,3.15
2019-02-26T09:04:23.795Z,12.99
2019-02-26T09:06:54.691Z,13.21
2019-02-26T09:09:27.783Z,13.54
2019-02-26T09:12:03.039Z,13.65
2019-02-26T09:14:37.589Z,13.91
2019-02-26T09:17:07.764Z,13.72
2019-02-26T09:19:38.217Z,14.02
2019-02-26T09:22:26.661Z,13.83
2019-02-26T09:25:09.337Z,13.83
2019-02-26T09:27:45.685Z,13.43
2019-02-26T09:30:16.420Z,14.46
2019-02-26T09:32:52.322Z,14.13
2019-02-26T09:35:25.302Z,13.70
2019-02-26T09:37:57.754Z,14.31
2019-02-26T09:40:37.644Z,13.77
2019-02-26T09:43:08.298Z,13.60
2019-02-26T09:45:37.408Z,14.11
2019-02-26T09:48:06.589Z,14.81
2019-02-26T09:50:38.650Z,14.80
2019-02-26T09:53:13.448Z,15.26
2019-02-26T09:55:44.455Z,15.32
2019-02-26T09:58:15.856Z,15.12
2019-02-26T10:00:46.097Z,14.96
2019-02-26T10:03:22.248Z,15.29
2019-02-26T10:05:53.205Z,15.69
2019-02-26T10:08:24.812Z,15.65
2019-02-26T10:10:57.607Z,16.06
2019-02-26T10:13:28.688Z,15.25
2019-02-26T10:15:59.283Z,15.97
2019-02-26T10:18:30.924Z,16.26
2019-02-26T10:21:03.260Z,16.30
2019-02-26T10:23:33.149Z,16.41
2019-02-26T10:26:05.762Z,16.67
2019-02-26T10:28:39.381Z,16.32
2019-02-26T10:31:10.556Z,16.52
2019-02-26T10:33:41.131Z,16.16
2019-02-26T10:36:13.480Z,16.09
2019-02-26T10:38:45.010Z,16.44
2019-02-26T10:41:16.629Z,16.48
2019-02-26T10:43:46.051Z,16.71
2019-02-26T10:46:16.320Z,16.53
2019-02-26T10:48:48.166Z,16.57
2019-02-26T10:51:18.212Z,16.59
2019-02-26T10:53:50.213Z,16.57
2019-02-26T10:56:20.546Z,16.81
2019-02-26T10:58:54.737Z,17.26
2019-02-26T11:01:27.524Z,16.89
2019-02-26T11:03:57.636Z,16.88
2019-02-26T11:06:27.817Z,17.10
2019-02-26T11:09:01.764Z,17.42
2019-02-26T11:11:35.225Z,17.42
2019-02-26T11:14:05.271Z,17.36
2019-02-26T11:16:45.077Z,16.97
2019-02-26T11:19:14.399Z,16.95
2019-02-26T11:21:47.524Z,17.20
2019-02-26T11:24:23.056Z,17.08
2019-02-26T11:26:51.798Z,17.50
2019-02-26T11:29:21.102Z,17.43
2019-02-26T11:31:54.645Z,17.76
2019-02-26T11:34:25.493Z,17.69
2019-02-26T11:36:56.109Z,17.72
2019-02-26T11:39:26.079Z,17.71
2019-02-26T11:41:56.835Z,17.64
2019-02-26T11:44:32.305Z,8.55
2019-02-26T11:47:02.943Z,17.62
2019-02-26T11:49:34.321Z,17.76
2019-02-26T11:52:04.668Z,17.92
2019-02-26T11:54:37.152Z,18.14
2019-02-26T11:57:10.286Z,18.12
2019-02-26T11:59:42.939Z,18.32
2019-02-26T12:02:13.811Z,18.85
2019-02-26T12:04:43.005Z,19.33
2019-02-26T12:07:14.329Z,19.02
2019-02-26T12:09:45.802Z,19.00
2019-02-26T12:12:18.024Z,18.72
2019-02-26T12:14:48.525Z,18.94
2019-02-26T12:17:21.346Z,19.51
2019-02-26T12:19:53.354Z,19.54
2019-02-26T12:22:30.303Z,19.33
2019-02-26T12:25:01.831Z,19.21
2019-02-26T12:27:32.122Z,18.89
2019-02-26T12:30:02.089Z,19.18
2019-02-26T12:32:33.039Z,19.06
2019-02-26T12:35:08.586Z,19.14
2019-02-26T12:37:40.587Z,19.11
2019-02-26T12:40:19.422Z,19.49
2019-02-26T12:42:48.233Z,19.73
2019-02-26T12:45:20.651Z,19.69
2019-02-26T12:47:54.500Z,19.61
2019-02-26T12:50:34.263Z,19.74
2019-02-26T12:53:04.060Z,19.69
2019-02-26T12:55:35.853Z,19.72
2019-02-26T12:58:06.824Z,19.79
2019-02-26T13:00:41.938Z,19.97
2019-02-26T13:03:25.092Z,19.63
2019-02-26T13:05:54.546Z,20.18
2019-02-26T13:08:28.922Z,17.78
2019-02-26T13:11:00.342Z,20.01
2019-02-26T13:13:31.609Z,19.98
2019-02-26T13:16:05.446Z,11.58
2019-02-26T13:21:19.864Z,20.02
2019-02-26T13:24:03.610Z,20.28
2019-02-26T13:26:38.931Z,20.09
2019-02-26T13:29:09.867Z,20.20
2019-02-26T13:31:44.815Z,20.07
2019-02-26T13:34:14.250Z,19.70
2019-02-26T13:36:52.228Z,19.89
2019-02-26T13:39:29.826Z,19.88
2019-02-26T13:41:58.587Z,20.30
2019-02-26T13:44:28.443Z,19.90
2019-02-26T13:46:58.611Z,20.46
2019-02-26T13:49:29.050Z,20.36
2019-02-26T13:52:01.244Z,20.51
2019-02-26T13:54:34.871Z,20.97
2019-02-26T13:57:05.451Z,20.49
2019-02-26T13:59:35.639Z,20.88
2019-02-26T14:02:09.597Z,20.98
2019-02-26T14:04:38.738Z,21.22
2019-02-26T14:07:07.852Z,21.48
2019-02-26T14:09:38.073Z,21.68
2019-02-26T14:12:08.416Z,21.46
2019-02-26T14:14:40.037Z,21.40
2019-02-26T14:17:09.143Z,21.04
2019-02-26T14:19:38.300Z,21.56
2019-02-26T14:22:08.015Z,21.61
2019-02-26T14:24:38.408Z,21.16
2019-02-26T14:27:08.577Z,20.91
2019-02-26T14:29:41.979Z,21.05
2019-02-26T14:32:11.510Z,21.18
2019-02-26T14:34:44.469Z,21.27
2019-02-26T14:37:16.917Z,21.38
2019-02-26T14:39:46.074Z,21.51
2019-02-26T14:42:16.946Z,21.74
2019-02-26T14:44:52.051Z,21.56
2019-02-26T14:47:21.699Z,21.88
2019-02-26T14:49:50.811Z,22.11
2019-02-26T14:52:20.174Z,21.67
2019-02-26T14:54:50.664Z,21.30
2019-02-26T14:57:20.278Z,20.90
2019-02-26T14:59:51.022Z,21.11
2019-02-26T15:02:20.144Z,21.44
2019-02-26T15:04:52.447Z,21.23
2019-02-26T15:07:22.730Z,21.11
2019-02-26T15:09:56.621Z,21.06
2019-02-26T15:12:25.742Z,21.10
2019-02-26T15:14:59.610Z,20.91
2019-02-26T15:17:32.246Z,20.93
2019-02-26T15:20:04.742Z,20.80
2019-02-26T15:22:35.534Z,21.15
2019-02-26T15:25:04.991Z,21.10
2019-02-26T15:27:38.943Z,20.97
2019-02-26T15:30:13.485Z,21.26
2019-02-26T15:32:42.898Z,21.60
2019-02-26T15:35:15.127Z,21.35
2019-02-26T15:37:48.630Z,21.09
2019-02-26T15:40:17.957Z,21.08
2019-02-26T15:42:52.440Z,20.77
2019-02-26T15:45:24.876Z,20.70
2019-02-26T15:47:55.271Z,20.35
2019-02-26T15:50:26.207Z,20.29
2019-02-26T15:52:55.443Z,20.16
2019-02-26T15:55:25.976Z,20.15
2019-02-26T15:58:03.059Z,20.21
2019-02-26T16:00:29.434Z,20.23
2019-02-26T16:02:59.420Z,20.21
2019-02-26T16:05:31.146Z,20.00
2019-02-26T16:08:06.262Z,19.87
2019-02-26T16:10:37.815Z,19.91
2019-02-26T16:13:10.448Z,19.76
2019-02-26T16:15:40.629Z,19.60
2019-02-26T16:18:09.738Z,19.50
2019-02-26T16:20:39.454Z,19.42
2019-02-26T16:23:12.633Z,19.43
2019-02-26T16:25:41.861Z,19.28
2019-02-26T16:28:11.001Z,19.24
2019-02-26T16:30:41.199Z,18.97
2019-02-26T16:33:20.303Z,18.90
2019-02-26T16:35:57.633Z,18.86
2019-02-26T16:38:29.342Z,18.76
2019-02-26T16:40:58.546Z,18.85
2019-02-26T16:43:28.615Z,18.72
2019-02-26T16:45:57.720Z,18.73
2019-02-26T16:48:26.954Z,18.68
2019-02-26T16:50:59.114Z,18.58
2019-02-26T16:53:34.320Z,18.55
2019-02-26T16:56:05.274Z,18.62
2019-02-26T16:58:35.625Z,18.65
2019-02-26T17:01:08.106Z,18.56
2019-02-26T17:03:39.001Z,18.53
2019-02-26T17:06:08.122Z,18.52
2019-02-26T17:08:37.242Z,18.48
2019-02-26T17:11:06.727Z,18.46
2019-02-26T17:13:36.573Z,18.45
2019-02-26T17:16:06.796Z,18.40
2019-02-26T17:18:40.566Z,18.13
2019-02-26T17:21:16.898Z,18.12
2019-02-26T17:23:47.115Z,18.00
2019-02-26T17:26:16.902Z,17.92
2019-02-26T17:28:48.853Z,17.77
2019-02-26T17:31:18.011Z,17.56
2019-02-26T17:33:51.277Z,17.49
2019-02-26T17:36:22.797Z,17.58
2019-02-26T17:39:07.176Z,17.56
2019-02-26T17:41:28.753Z,17.55
2019-02-26T17:44:07.092Z,17.52
2019-02-26T17:46:36.568Z,17.55
2019-02-26T17:49:08.469Z,17.34
2019-02-26T17:51:38.586Z,16.62
2019-02-26T17:54:12.165Z,16.96
2019-02-26T17:56:42.195Z,17.08
2019-02-26T17:59:11.398Z,17.10
2019-02-26T18:01:40.518Z,16.96
2019-02-26T18:04:09.592Z,16.85
2019-02-26T18:06:42.809Z,16.91
2019-02-26T18:09:09.990Z,16.99
2019-02-26T18:11:40.341Z,17.16
2019-02-26T18:14:10.834Z,16.90
2019-02-26T18:16:41.627Z,16.88
2019-02-26T18:19:12.404Z,16.88
2019-02-26T18:22:04.138Z,16.90
2019-02-26T18:24:33.440Z,16.83
2019-02-26T18:27:02.544Z,16.70
2019-02-26T18:29:34.175Z,16.33
2019-02-26T18:32:11.703Z,16.43
2019-02-26T18:34:43.236Z,16.48
2019-02-26T18:37:12.354Z,16.41
2019-02-26T18:39:41.511Z,16.32
2019-02-26T18:42:15.594Z,16.27
2019-02-26T18:44:44.746Z,16.17
2019-02-26T18:47:13.837Z,16.06
2019-02-26T18:49:45.645Z,16.09
2019-02-26T18:52:14.748Z,15.93
2019-02-26T18:54:45.117Z,15.92
2019-02-26T18:57:15.083Z,15.71
2019-02-26T18:59:44.791Z,15.69
2019-02-26T19:02:14.246Z,15.69
2019-02-26T19:04:48.792Z,15.64
2019-02-26T19:07:22.684Z,15.57
2019-02-26T19:09:52.096Z,15.41
2019-02-26T19:12:32.179Z,15.36
2019-02-26T19:15:01.660Z,15.33
2019-02-26T19:17:31.628Z,15.25
2019-02-26T19:20:02.686Z,15.19
2019-02-26T19:22:33.222Z,15.15
2019-02-26T19:25:02.510Z,15.22
2019-02-26T19:27:32.967Z,15.29
2019-02-26T19:30:04.572Z,15.29
2019-02-26T19:32:35.557Z,15.33
2019-02-26T19:35:12.206Z,15.03
2019-02-26T19:37:39.198Z,14.97
2019-02-26T19:40:13.825Z,15.06
2019-02-26T19:42:42.949Z,15.08
2019-02-26T19:45:16.008Z,15.03
2019-02-26T19:47:45.123Z,14.89
2019-02-26T19:50:16.008Z,14.75
2019-02-26T19:52:56.600Z,14.86
2019-02-26T19:55:25.951Z,14.87
2019-02-26T19:57:58.276Z,14.89
2019-02-26T20:00:27.375Z,15.06
2019-02-26T20:02:59.898Z,13.28
2019-02-26T20:05:31.477Z,14.95
2019-02-26T20:08:04.905Z,14.91
2019-02-26T20:10:35.427Z,14.89
2019-02-26T20:13:12.455Z,14.88
2019-02-26T20:15:41.747Z,14.71
2019-02-26T20:18:20.198Z,14.50
2019-02-26T20:20:52.128Z,14.30
2019-02-26T20:23:23.302Z,14.37
2019-02-26T20:25:52.465Z,14.17
2019-02-26T20:28:23.989Z,14.29
2019-02-26T20:30:53.109Z,14.49
2019-02-26T20:33:22.349Z,14.40
2019-02-26T20:35:51.431Z,13.57
2019-02-26T20:38:22.152Z,14.05
2019-02-26T20:40:51.553Z,13.99
2019-02-26T20:43:21.843Z,14.28
2019-02-26T20:45:52.682Z,14.11
2019-02-26T20:48:23.550Z,13.47
2019-02-26T20:51:01.452Z,13.53
2019-02-26T20:53:38.582Z,12.85
2019-02-26T20:56:05.513Z,13.25
2019-02-26T20:58:34.707Z,13.45
2019-02-26T21:01:05.708Z,13.78
2019-02-26T21:03:34.908Z,13.52
2019-02-26T21:06:05.301Z,13.48
2019-02-26T21:08:40.791Z,13.12
2019-02-26T21:11:10.028Z,12.97
2019-02-26T21:13:42.203Z,12.40
2019-02-26T21:16:11.597Z,9.88
2019-02-26T21:18:42.484Z,11.76
2019-02-26T21:21:16.559Z,11.56
2019-02-26T21:23:48.428Z,11.69
2019-02-26T21:26:19.674Z,11.41
2019-02-26T21:28:48.632Z,11.19
2019-02-26T21:31:22.421Z,11.31
2019-02-26T21:33:51.615Z,11.04
2019-02-26T21:36:20.728Z,10.88
2019-02-26T21:38:49.873Z,10.95
2019-02-26T21:41:23.150Z,10.73
2019-02-26T21:43:50.993Z,10.69
2019-02-26T21:46:22.550Z,10.88
2019-02-26T21:48:51.707Z,10.93
2019-02-26T21:51:21.060Z,10.48
2019-02-26T21:53:50.150Z,10.27
2019-02-26T21:56:19.284Z,10.35
2019-02-26T21:58:48.361Z,10.28
2019-02-26T22:01:20.003Z,10.22
2019-02-26T22:03:52.296Z,10.20
2019-02-26T22:06:21.392Z,10.05
2019-02-26T22:08:50.502Z,9.98
2019-02-26T22:11:21.382Z,9.98
2019-02-26T22:13:50.478Z,9.74
2019-02-26T22:16:19.614Z,9.85
2019-02-26T22:18:48.728Z,9.75
2019-02-26T22:21:19.658Z,9.56
2019-02-26T22:23:48.862Z,9.85
2019-02-26T22:26:18.051Z,9.69
2019-02-26T22:28:47.168Z,9.52
2019-02-26T22:31:16.291Z,9.46
2019-02-26T22:33:46.361Z,9.77
2019-02-26T22:36:18.280Z,9.66
2019-02-26T22:38:49.831Z,9.49
2019-02-26T22:41:25.149Z,9.49
2019-02-26T22:43:55.247Z,9.47
2019-02-26T22:46:25.619Z,8.95
2019-02-26T22:48:57.312Z,9.17
2019-02-26T22:51:29.459Z,9.06
2019-02-26T22:54:00.332Z,9.05
2019-02-26T22:56:33.922Z,9.11
2019-02-26T22:59:08.005Z,8.87
2019-02-26T23:01:48.739Z,9.07
2019-02-26T23:04:19.659Z,9.43
2019-02-26T23:06:48.780Z,9.52
2019-02-26T23:09:23.784Z,9.61
2019-02-26T23:11:54.763Z,7.48
2019-02-26T23:14:23.992Z,9.07
2019-02-26T23:16:53.108Z,9.52
2019-02-26T23:19:25.134Z,9.46
2019-02-26T23:21:54.238Z,9.24
2019-02-26T23:24:27.724Z,9.43
2019-02-26T23:26:54.678Z,9.45
2019-02-26T23:29:27.801Z,9.17
2019-02-26T23:31:56.832Z,9.06
2019-02-26T23:34:25.951Z,8.91
2019-02-26T23:37:00.658Z,8.88
2019-02-26T23:39:31.964Z,8.95
2019-02-26T23:42:06.126Z,8.83
2019-02-26T23:44:35.776Z,8.82
2019-02-26T23:47:06.051Z,8.62
2019-02-26T23:49:36.561Z,8.48
2019-02-26T23:52:10.899Z,8.50
2019-02-26T23:54:40.491Z,8.60
2019-02-26T23:57:09.752Z,8.41
2019-02-26T23:59:48.071Z,8.35
